Airport Name : Cam Ranh

Other Name : Cam Ranh

ICAO : VVCR

IATA :

FAA :

Latitude : 11.998153

Longitude : 109.219372

Country : Vietnam

Local Date and Time : 1/16/2019 10:23:00 AM

 

TAF (Terminal Aerodrome Forecast)

TAF VVCR 152300Z 1600/1624 02010KT 9999 SCT013 BKN050

 

METAR (METeorological Aerodrome Report)

VVCR 160300Z 03012KT 9999 FEW013 30/22 Q1015 NOSIG

VVCR 160230Z 04011KT 9999 FEW013 29/22 Q1015 NOSIG

VVCR 160200Z 03012KT 9999 FEW013 29/21 Q1015 NOSIG

VVCR 160130Z 03009KT 350V060 9999 FEW013 28/21 Q1015 NOSIG

VVCR 160100Z 02007KT 9999 FEW013 28/21 Q1015 NOSIG

VVCR 160030Z 02007KT 9999 FEW013 SCT040 27/21 Q1014 NOSIG

VVCR 160000Z 02007KT 9999 FEW013 SCT040 25/21 Q1014 NOSIG

VVCR 152330Z 02007KT 9999 FEW013 SCT040 25/21 Q1014 NOSIG